createdAt,value
2023-05-06T00:00:44.447Z,98290.84
2023-05-06T00:01:47.187Z,98285.87
2023-05-06T00:02:50.166Z,98297.16
2023-05-06T00:03:53.596Z,98294.81
2023-05-06T00:04:56.945Z,98294.81
2023-05-06T00:05:59.660Z,98294.06
2023-05-06T00:07:02.567Z,98293.78
2023-05-06T00:08:06.255Z,98294.22
2023-05-06T00:09:08.909Z,98295.91
2023-05-06T00:10:11.972Z,98292.69
2023-05-06T00:11:14.599Z,98288.69
2023-05-06T00:12:18.496Z,98291.00
2023-05-06T00:13:21.179Z,98294.13
2023-05-06T00:14:24.050Z,98288.88
2023-05-06T00:15:26.743Z,98295.97
2023-05-06T00:16:29.567Z,98291.00
2023-05-06T00:17:32.305Z,98294.88
2023-05-06T00:18:35.290Z,98291.25
2023-05-06T00:19:38.871Z,98292.81
2023-05-06T00:20:42.146Z,98286.19
2023-05-06T00:21:45.362Z,98294.53
2023-05-06T00:22:48.203Z,98294.22
2023-05-06T00:23:51.160Z,98291.78
2023-05-06T00:24:53.850Z,98293.16
2023-05-06T00:25:56.665Z,98290.03
2023-05-06T00:26:59.348Z,98298.22
2023-05-06T00:28:02.212Z,98294.75
2023-05-06T00:29:04.884Z,98298.78
2023-05-06T00:30:08.153Z,98300.19
2023-05-06T00:31:10.940Z,98292.59
2023-05-06T00:32:13.584Z,98296.78
2023-05-06T00:33:16.399Z,98293.84
2023-05-06T00:34:19.095Z,98294.03
2023-05-06T00:35:21.806Z,98294.03
2023-05-06T00:36:24.994Z,98289.72
2023-05-06T00:37:27.676Z,98295.09
2023-05-06T00:38:30.553Z,98292.41
2023-05-06T00:39:34.636Z,98300.28
2023-05-06T00:40:37.879Z,98298.88
2023-05-06T00:41:40.979Z,98301.19
2023-05-06T00:42:43.576Z,98300.25
2023-05-06T00:43:46.276Z,98297.84
2023-05-06T00:44:49.680Z,98296.31
2023-05-06T00:45:52.460Z,98293.56
2023-05-06T00:46:57.213Z,98285.84
2023-05-06T00:48:00.292Z,98290.94
2023-05-06T00:49:03.230Z,98288.00
2023-05-06T00:50:07.244Z,98295.59
2023-05-06T00:51:10.166Z,98291.72
2023-05-06T00:52:13.806Z,98290.34
2023-05-06T00:53:19.808Z,98285.37
2023-05-06T00:54:25.401Z,98288.00
2023-05-06T00:55:28.588Z,98288.34
2023-05-06T00:56:31.574Z,98285.09
2023-05-06T00:57:34.624Z,98286.63
2023-05-06T00:58:38.248Z,98288.09
2023-05-06T00:59:41.160Z,98287.44
2023-05-06T01:00:44.793Z,98286.66
2023-05-06T01:01:47.620Z,98281.84
2023-05-06T01:02:50.470Z,98290.34
2023-05-06T01:03:57.531Z,98282.91
2023-05-06T01:05:01.111Z,98284.94
2023-05-06T01:06:45.776Z,98275.19
2023-05-06T01:08:04.036Z,98279.03
2023-05-06T01:09:30.266Z,98280.28
2023-05-06T01:10:40.885Z,98278.47
2023-05-06T01:12:17.257Z,98277.19
2023-05-06T01:13:39.455Z,98281.97
2023-05-06T01:14:56.480Z,98280.88
2023-05-06T01:16:01.482Z,98283.81
2023-05-06T01:17:06.519Z,98279.41
2023-05-06T01:18:11.884Z,98276.78
2023-05-06T01:19:35.208Z,98270.59
2023-05-06T01:20:40.225Z,98265.63
2023-05-06T01:21:45.888Z,98269.63
2023-05-06T01:22:50.390Z,98270.41
2023-05-06T01:23:55.869Z,98276.13
2023-05-06T01:24:58.618Z,98271.47
2023-05-06T01:26:01.428Z,98274.28
2023-05-06T01:27:04.440Z,98262.72
2023-05-06T01:28:10.650Z,98272.31
2023-05-06T01:29:13.356Z,98270.50
2023-05-06T01:30:23.173Z,98263.25
2023-05-06T01:31:52.574Z,98273.91
2023-05-06T01:33:11.815Z,98266.31
2023-05-06T01:34:23.707Z,98272.84
2023-05-06T01:36:17.629Z,98263.97
2023-05-06T01:37:29.061Z,98254.22
2023-05-06T01:38:46.357Z,98256.91
2023-05-06T01:39:50.331Z,98256.25
2023-05-06T01:40:57.034Z,98256.53
2023-05-06T01:42:02.816Z,98260.78
2023-05-06T01:43:06.756Z,98256.41
2023-05-06T01:44:11.114Z,98260.91
2023-05-06T01:45:17.167Z,98256.25
2023-05-06T01:46:22.139Z,98261.06
2023-05-06T01:47:26.054Z,98256.53
2023-05-06T01:48:32.478Z,98258.81
2023-05-06T01:49:36.259Z,98254.22
2023-05-06T01:50:39.247Z,98252.53
2023-05-06T01:51:51.180Z,98256.41
2023-05-06T01:53:01.471Z,98258.81
2023-05-06T01:54:04.770Z,98252.81
2023-05-06T01:55:08.027Z,98253.78
2023-05-06T01:56:11.188Z,98250.88
2023-05-06T01:57:14.072Z,98259.16
2023-05-06T01:58:16.933Z,98251.66
2023-05-06T01:59:20.288Z,98254.87
2023-05-06T02:00:25.158Z,98257.03
2023-05-06T02:01:28.156Z,98257.78
2023-05-06T02:02:31.005Z,98254.72
2023-05-06T02:03:33.852Z,98257.50
2023-05-06T02:04:36.501Z,98259.97
2023-05-06T02:05:39.399Z,98257.34
2023-05-06T02:06:42.717Z,98257.78
2023-05-06T02:07:45.610Z,98257.66
2023-05-06T02:08:49.077Z,98259.03
2023-05-06T02:09:51.683Z,98254.41
2023-05-06T02:10:54.413Z,98260.38
2023-05-06T02:11:57.140Z,98256.19
2023-05-06T02:13:00.027Z,98255.25
2023-05-06T02:14:02.711Z,98260.19
2023-05-06T02:15:05.906Z,98258.72
2023-05-06T02:16:11.974Z,98256.72
2023-05-06T02:17:14.835Z,98254.72
2023-05-06T02:18:17.566Z,98258.72
2023-05-06T02:19:20.272Z,98256.53
2023-05-06T02:20:23.619Z,98259.00
2023-05-06T02:21:26.681Z,98257.91
2023-05-06T02:22:29.635Z,98261.94
2023-05-06T02:23:32.466Z,98262.53
2023-05-06T02:24:35.191Z,98260.97
2023-05-06T02:25:38.039Z,98263.37
2023-05-06T02:26:40.761Z,98259.44
2023-05-06T02:27:45.175Z,98269.94
2023-05-06T02:28:47.936Z,98261.34
2023-05-06T02:29:50.911Z,98265.81
2023-05-06T02:30:57.671Z,98267.62
2023-05-06T02:32:00.485Z,98262.59
2023-05-06T02:33:03.577Z,98267.19
2023-05-06T02:34:06.945Z,98269.63
2023-05-06T02:35:10.292Z,98270.31
2023-05-06T02:36:13.236Z,98268.47
2023-05-06T02:37:16.034Z,98258.84
2023-05-06T02:38:20.122Z,98264.53
2023-05-06T02:39:22.979Z,98262.94
2023-05-06T02:40:25.641Z,98267.31
2023-05-06T02:41:28.450Z,98262.75
2023-05-06T02:42:31.163Z,98258.69
2023-05-06T02:43:34.112Z,98263.66
2023-05-06T02:44:36.852Z,98256.50
2023-05-06T02:45:39.601Z,98261.22
2023-05-06T02:46:43.827Z,98263.84
2023-05-06T02:47:46.660Z,98270.34
2023-05-06T02:48:49.441Z,98262.41
2023-05-06T02:49:52.579Z,98270.94
2023-05-06T02:50:55.224Z,98275.53
2023-05-06T02:51:58.290Z,98269.31
2023-05-06T02:53:01.025Z,98275.25
2023-05-06T02:54:03.760Z,98264.38
2023-05-06T02:55:07.175Z,98273.50
2023-05-06T02:56:09.957Z,98267.97
2023-05-06T02:57:12.948Z,98273.59
2023-05-06T02:58:15.658Z,98269.53
2023-05-06T02:59:18.378Z,98272.06
2023-05-06T03:00:21.211Z,98268.09
2023-05-06T03:01:24.467Z,98268.75
2023-05-06T03:02:27.271Z,98265.66
2023-05-06T03:03:30.060Z,98267.81
2023-05-06T03:04:33.009Z,98271.78
2023-05-06T03:05:35.728Z,98266.31
2023-05-06T03:06:38.430Z,98264.78
2023-05-06T03:07:41.527Z,98264.31
2023-05-06T03:08:44.276Z,98262.06
2023-05-06T03:09:47.196Z,98267.62
2023-05-06T03:10:51.011Z,98260.12
2023-05-06T03:11:53.638Z,98265.00
2023-05-06T03:12:56.297Z,98273.16
2023-05-06T03:13:58.906Z,98267.22
2023-05-06T03:15:01.695Z,98267.62
2023-05-06T03:16:04.668Z,98264.59
2023-05-06T03:17:07.338Z,98259.25
2023-05-06T03:18:10.259Z,98255.78
2023-05-06T03:19:13.210Z,98267.62
2023-05-06T03:20:16.364Z,98264.78
2023-05-06T03:21:19.130Z,98260.22
2023-05-06T03:22:22.608Z,98254.03
2023-05-06T03:23:25.287Z,98256.66
2023-05-06T03:24:27.989Z,98247.31
2023-05-06T03:25:30.657Z,98251.78
2023-05-06T03:26:33.482Z,98256.34
2023-05-06T03:27:36.366Z,98252.47
2023-05-06T03:28:39.249Z,98249.66
2023-05-06T03:29:41.959Z,98248.37
2023-05-06T03:30:44.773Z,98253.16
2023-05-06T03:31:50.279Z,98245.88
2023-05-06T03:32:53.337Z,98246.94
2023-05-06T03:33:56.122Z,98244.31
2023-05-06T03:34:58.865Z,98247.59
2023-05-06T03:36:01.488Z,98240.72
2023-05-06T03:37:04.299Z,98249.06
2023-05-06T03:38:07.263Z,98244.03
2023-05-06T03:39:10.432Z,98238.78
2023-05-06T03:40:14.095Z,98244.50
2023-05-06T03:41:18.213Z,98245.84
2023-05-06T03:42:20.905Z,98246.03
2023-05-06T03:43:24.093Z,98249.41
2023-05-06T03:44:26.780Z,98250.69
2023-05-06T03:45:29.494Z,98249.91
2023-05-06T03:46:32.955Z,98249.91
2023-05-06T03:47:35.738Z,98253.59
2023-05-06T03:48:38.612Z,98253.53
2023-05-06T03:49:41.269Z,98249.53
2023-05-06T03:50:44.243Z,98251.25
2023-05-06T03:51:47.429Z,98253.13
2023-05-06T03:52:50.195Z,98258.59
2023-05-06T03:53:54.750Z,98264.94
2023-05-06T03:54:57.660Z,98255.91
2023-05-06T03:56:01.838Z,98263.28
2023-05-06T03:57:05.538Z,98264.44
2023-05-06T03:58:08.464Z,98260.38
2023-05-06T03:59:11.290Z,98270.19
2023-05-06T04:00:14.652Z,98270.87
2023-05-06T04:01:18.364Z,98265.31
2023-05-06T04:02:21.082Z,98263.41
2023-05-06T04:03:23.745Z,98269.50
2023-05-06T04:04:27.482Z,98274.84
2023-05-06T04:05:30.123Z,98269.78
2023-05-06T04:06:32.916Z,98270.69
2023-05-06T04:07:35.740Z,98274.25
2023-05-06T04:08:38.783Z,98274.25
2023-05-06T04:09:41.585Z,98279.78
2023-05-06T04:10:44.747Z,98274.62
2023-05-06T04:11:47.470Z,98272.22
2023-05-06T04:12:50.355Z,98275.59
2023-05-06T04:13:53.010Z,98270.81
2023-05-06T04:14:55.588Z,98274.53
2023-05-06T04:15:58.612Z,98276.13
2023-05-06T04:17:01.488Z,98272.50
2023-05-06T04:18:07.768Z,98270.03
2023-05-06T04:19:10.878Z,98277.63
2023-05-06T04:20:14.535Z,98275.28
2023-05-06T04:21:18.512Z,98276.28
2023-05-06T04:22:21.595Z,98285.41
2023-05-06T04:23:24.206Z,98288.88
2023-05-06T04:24:28.892Z,98276.25
2023-05-06T04:25:31.443Z,98284.09
2023-05-06T04:26:34.244Z,98278.66
2023-05-06T04:27:36.921Z,98276.63
2023-05-06T04:28:39.785Z,98278.59
2023-05-06T04:29:43.017Z,98279.66
2023-05-06T04:30:47.010Z,98279.66
2023-05-06T04:31:49.959Z,98276.91
2023-05-06T04:32:52.770Z,98278.16
2023-05-06T04:33:55.604Z,98274.47
2023-05-06T04:34:58.240Z,98276.56
2023-05-06T04:36:01.192Z,98278.41
2023-05-06T04:37:03.947Z,98274.31
2023-05-06T04:38:07.002Z,98282.34
2023-05-06T04:39:10.674Z,98276.81
2023-05-06T04:40:14.095Z,98272.63
2023-05-06T04:41:17.143Z,98273.88
2023-05-06T04:42:20.018Z,98278.69
2023-05-06T04:43:23.488Z,98275.38
2023-05-06T04:44:26.210Z,98274.00
2023-05-06T04:45:29.987Z,98278.63
2023-05-06T04:46:34.286Z,98280.50
2023-05-06T04:47:37.429Z,98283.00
2023-05-06T04:48:40.182Z,98287.50
2023-05-06T04:49:42.987Z,98292.78
2023-05-06T04:50:46.001Z,98289.72
2023-05-06T04:51:48.796Z,98297.12
2023-05-06T04:52:51.483Z,98299.16
2023-05-06T04:53:54.148Z,98292.81
2023-05-06T04:54:56.757Z,98294.37
2023-05-06T04:55:59.424Z,98295.81
2023-05-06T04:57:03.411Z,98294.88
2023-05-06T04:58:06.253Z,98295.38
2023-05-06T04:59:08.991Z,98306.22
2023-05-06T05:00:12.264Z,98302.59
2023-05-06T05:01:15.303Z,98308.47
2023-05-06T05:02:17.998Z,98310.69
2023-05-06T05:03:20.656Z,98309.06
2023-05-06T05:04:23.511Z,98315.72
2023-05-06T05:05:27.952Z,98308.59
2023-05-06T05:06:32.141Z,98307.19
2023-05-06T05:07:35.028Z,98319.13
2023-05-06T05:08:37.732Z,98317.31
2023-05-06T05:09:40.470Z,98313.34
2023-05-06T05:10:46.246Z,98307.94
2023-05-06T05:11:48.909Z,98307.00
2023-05-06T05:12:51.727Z,98304.66
2023-05-06T05:13:56.478Z,98306.56
2023-05-06T05:14:59.902Z,98304.09
2023-05-06T05:16:02.670Z,98308.44
2023-05-06T05:17:05.776Z,98302.06
2023-05-06T05:18:09.103Z,98304.28
2023-05-06T05:19:11.882Z,98304.13
2023-05-06T05:20:14.620Z,98305.81
2023-05-06T05:21:17.281Z,98310.47
2023-05-06T05:22:20.198Z,98307.22
2023-05-06T05:23:22.908Z,98297.03
2023-05-06T05:24:25.524Z,98302.63
2023-05-06T05:25:28.190Z,98303.72
2023-05-06T05:26:31.166Z,98299.84
2023-05-06T05:27:33.981Z,98305.75
2023-05-06T05:28:36.729Z,98301.56
2023-05-06T05:29:39.420Z,98298.00
2023-05-06T05:30:42.012Z,98301.87
2023-05-06T05:31:44.920Z,98304.66
2023-05-06T05:32:47.845Z,98306.66
2023-05-06T05:33:50.953Z,98304.50
2023-05-06T05:34:53.607Z,98295.81
2023-05-06T05:35:56.357Z,98295.19
2023-05-06T05:36:59.210Z,98295.19
2023-05-06T05:38:01.994Z,98291.00
2023-05-06T05:39:05.036Z,98294.22
2023-05-06T05:40:08.441Z,98296.88
2023-05-06T05:41:11.371Z,98297.12
2023-05-06T05:42:14.743Z,98291.50
2023-05-06T05:43:17.545Z,98297.97
2023-05-06T05:44:20.365Z,98295.78
2023-05-06T05:45:23.064Z,98298.03
2023-05-06T05:46:25.741Z,98301.41
2023-05-06T05:47:28.390Z,98292.03
2023-05-06T05:48:33.135Z,98293.34
2023-05-06T05:49:36.322Z,98297.69
2023-05-06T05:50:38.905Z,98294.53
2023-05-06T05:51:42.025Z,98299.38
2023-05-06T05:52:44.735Z,98295.59
2023-05-06T05:53:47.535Z,98295.13
2023-05-06T05:54:50.286Z,98291.88
2023-05-06T05:55:53.255Z,98297.34
2023-05-06T05:56:58.258Z,98298.69
2023-05-06T05:58:00.928Z,98296.72
2023-05-06T05:59:03.808Z,98297.75
2023-05-06T06:00:07.219Z,98295.47
2023-05-06T06:01:10.396Z,98295.72
2023-05-06T06:02:13.325Z,98299.25
2023-05-06T06:03:18.563Z,98304.97
2023-05-06T06:04:21.435Z,98303.41
2023-05-06T06:05:24.072Z,98297.81
2023-05-06T06:06:26.901Z,98300.22
2023-05-06T06:07:29.654Z,98297.81
2023-05-06T06:08:33.359Z,98295.63
2023-05-06T06:09:36.199Z,98296.69
2023-05-06T06:10:38.862Z,98301.13
2023-05-06T06:11:41.636Z,98302.66
2023-05-06T06:12:44.781Z,98296.28
2023-05-06T06:13:47.600Z,98296.94
2023-05-06T06:14:51.001Z,98300.78
2023-05-06T06:15:53.785Z,98306.38
2023-05-06T06:16:56.659Z,98307.50
2023-05-06T06:17:59.578Z,98304.31
2023-05-06T06:19:02.532Z,98305.44
2023-05-06T06:20:06.126Z,98306.19
2023-05-06T06:21:08.981Z,98301.22
2023-05-06T06:22:12.725Z,98301.87
2023-05-06T06:23:15.583Z,98300.78
2023-05-06T06:24:18.366Z,98306.94
2023-05-06T06:25:21.745Z,98302.88
2023-05-06T06:26:24.596Z,98298.88
2023-05-06T06:27:27.495Z,98304.72
2023-05-06T06:28:31.518Z,98298.97
2023-05-06T06:29:34.231Z,98303.59
2023-05-06T06:30:37.666Z,98301.25
2023-05-06T06:31:40.786Z,98304.78
2023-05-06T06:32:51.807Z,98290.84
2023-05-06T06:33:54.442Z,98297.78
2023-05-06T06:34:57.015Z,98294.03
2023-05-06T06:35:59.890Z,98300.91
2023-05-06T06:37:02.511Z,98296.09
2023-05-06T06:38:05.191Z,98292.25
2023-05-06T06:39:08.672Z,98294.66
2023-05-06T06:40:12.024Z,98299.56
2023-05-06T06:41:14.745Z,98291.06
2023-05-06T06:42:17.900Z,98294.09
2023-05-06T06:43:20.989Z,98290.69
2023-05-06T06:44:23.646Z,98287.84
2023-05-06T06:45:26.331Z,98289.13
2023-05-06T06:46:28.932Z,98298.94
2023-05-06T06:47:32.016Z,98289.88
2023-05-06T06:48:34.804Z,98296.00
2023-05-06T06:49:38.751Z,98293.00
2023-05-06T06:50:41.393Z,98292.81
2023-05-06T06:51:44.207Z,98294.88
2023-05-06T06:52:46.867Z,98296.25
2023-05-06T06:53:51.674Z,98295.38
2023-05-06T06:54:54.391Z,98286.09
2023-05-06T06:55:57.117Z,98292.31
2023-05-06T06:56:59.769Z,98296.47
2023-05-06T06:58:02.862Z,98292.09
2023-05-06T06:59:05.611Z,98296.28
2023-05-06T07:00:09.260Z,98293.94
2023-05-06T07:01:12.010Z,98294.06
2023-05-06T07:02:14.755Z,98301.50
2023-05-06T07:03:19.695Z,98297.50
2023-05-06T07:04:22.744Z,98296.03
2023-05-06T07:05:27.098Z,98291.69
2023-05-06T07:06:29.770Z,98296.88
2023-05-06T07:07:32.776Z,98294.50
2023-05-06T07:08:35.582Z,98298.38
2023-05-06T07:09:40.234Z,98302.19
2023-05-06T07:10:43.070Z,98291.38
2023-05-06T07:11:46.022Z,98289.59
2023-05-06T07:12:48.858Z,98296.31
2023-05-06T07:13:51.871Z,98295.47
2023-05-06T07:14:54.842Z,98304.03
2023-05-06T07:15:59.203Z,98298.88
2023-05-06T07:17:02.138Z,98296.88
2023-05-06T07:18:05.094Z,98304.13
2023-05-06T07:19:08.008Z,98299.31
2023-05-06T07:20:11.142Z,98302.19
2023-05-06T07:21:14.021Z,98302.78
2023-05-06T07:22:16.776Z,98305.56
2023-05-06T07:23:19.450Z,98301.22
2023-05-06T07:24:22.454Z,98309.19
2023-05-06T07:25:25.751Z,98308.37
2023-05-06T07:26:28.487Z,98305.59
2023-05-06T07:27:31.195Z,98307.63
2023-05-06T07:28:37.693Z,98303.75
2023-05-06T07:29:40.467Z,98310.09
2023-05-06T07:30:43.423Z,98305.03
2023-05-06T07:31:46.195Z,98307.59
2023-05-06T07:32:49.149Z,98311.44
2023-05-06T07:33:51.983Z,98310.38
2023-05-06T07:34:54.752Z,98301.94
2023-05-06T07:35:57.430Z,98309.91
2023-05-06T07:37:00.401Z,98308.75
2023-05-06T07:38:03.265Z,98307.25
2023-05-06T07:39:07.052Z,98306.34
2023-05-06T07:40:10.051Z,98305.03
2023-05-06T07:41:13.240Z,98299.81
2023-05-06T07:42:15.855Z,98303.69
2023-05-06T07:43:19.002Z,98310.09
2023-05-06T07:44:22.087Z,98302.59
2023-05-06T07:45:25.380Z,98304.31
2023-05-06T07:46:28.575Z,98310.69
2023-05-06T07:47:32.889Z,98308.50
2023-05-06T07:48:35.767Z,98309.28
2023-05-06T07:49:38.542Z,98311.13
2023-05-06T07:50:41.236Z,98319.63
2023-05-06T07:51:44.583Z,98311.69
2023-05-06T07:52:47.341Z,98311.78
2023-05-06T07:53:49.968Z,98309.28
2023-05-06T07:54:53.418Z,98304.88
2023-05-06T07:56:02.348Z,98303.69
2023-05-06T07:57:05.592Z,98303.47
2023-05-06T07:58:08.253Z,98307.31
2023-05-06T07:59:11.932Z,98306.12
2023-05-06T08:00:15.013Z,98300.91
2023-05-06T08:01:17.892Z,98302.19
2023-05-06T08:02:20.852Z,98308.59
2023-05-06T08:03:23.918Z,98311.41
2023-05-06T08:04:27.003Z,98311.50
2023-05-06T08:05:29.921Z,98314.53
2023-05-06T08:06:32.567Z,98313.97
2023-05-06T08:07:35.215Z,98308.94
2023-05-06T08:08:37.934Z,98314.50
2023-05-06T08:09:40.714Z,98309.13
2023-05-06T08:10:46.622Z,98308.84
2023-05-06T08:11:50.832Z,98321.16
2023-05-06T08:12:53.602Z,98309.44
2023-05-06T08:13:56.455Z,98313.16
2023-05-06T08:14:59.210Z,98318.81
2023-05-06T08:16:02.640Z,98320.66
2023-05-06T08:17:05.817Z,98321.25
2023-05-06T08:18:20.862Z,98315.72
2023-05-06T08:19:24.843Z,98326.63
2023-05-06T08:20:27.731Z,98324.56
2023-05-06T08:21:30.977Z,98320.78
2023-05-06T08:22:33.600Z,98321.78
2023-05-06T08:23:36.316Z,98318.38
2023-05-06T08:24:38.863Z,98318.41
2023-05-06T08:25:41.445Z,98326.59
2023-05-06T08:26:44.555Z,98325.41
2023-05-06T08:27:47.364Z,98321.72
2023-05-06T08:28:50.488Z,98327.53
2023-05-06T08:30:55.700Z,98321.44
2023-05-06T08:31:58.512Z,98322.59
2023-05-06T08:33:02.164Z,98323.72
2023-05-06T08:34:04.886Z,98324.91
2023-05-06T08:35:07.986Z,98319.75
2023-05-06T08:36:10.820Z,98328.53
2023-05-06T08:37:13.648Z,98335.47
2023-05-06T08:38:16.366Z,98327.50
2023-05-06T08:39:19.316Z,98320.97
2023-05-06T08:40:24.096Z,98323.28
2023-05-06T08:41:29.028Z,98312.97
2023-05-06T08:42:32.956Z,98315.03
2023-05-06T08:43:42.393Z,98314.06
2023-05-06T08:44:46.078Z,98325.25
2023-05-06T08:45:49.796Z,98312.91
2023-05-06T08:46:52.981Z,98321.47
2023-05-06T08:47:55.868Z,98316.09
2023-05-06T08:48:59.777Z,98319.84
2023-05-06T08:50:02.970Z,98314.53
2023-05-06T08:51:07.126Z,98316.44
2023-05-06T08:52:10.224Z,98321.06
2023-05-06T08:53:13.992Z,98317.22
2023-05-06T08:54:18.163Z,98319.13
2023-05-06T08:55:22.611Z,98318.75
2023-05-06T08:56:30.196Z,98321.16
2023-05-06T08:57:34.240Z,98318.41
2023-05-06T08:58:38.872Z,98324.59
2023-05-06T08:59:42.781Z,98315.19
2023-05-06T09:00:46.714Z,98323.75
2023-05-06T09:01:49.489Z,98322.31
2023-05-06T09:02:52.187Z,98317.75
2023-05-06T09:03:58.230Z,98322.34
2023-05-06T09:05:01.703Z,98326.09
2023-05-06T09:06:04.958Z,98318.69
2023-05-06T09:07:08.551Z,98320.34
2023-05-06T09:08:11.871Z,98320.78
2023-05-06T09:09:15.132Z,98312.00
2023-05-06T09:10:19.181Z,98318.03
2023-05-06T09:11:29.836Z,98324.13
2023-05-06T09:12:32.827Z,98315.34
2023-05-06T09:13:35.548Z,98316.16
2023-05-06T09:14:38.356Z,98321.19
2023-05-06T09:15:47.548Z,98311.19
2023-05-06T09:16:52.612Z,98314.69
2023-05-06T09:17:56.061Z,98317.75
2023-05-06T09:18:59.376Z,98319.66
2023-05-06T09:20:02.317Z,98315.06
2023-05-06T09:21:05.219Z,98316.97
2023-05-06T09:22:08.660Z,98307.00
2023-05-06T09:23:13.185Z,98305.88
2023-05-06T09:24:17.168Z,98309.72
2023-05-06T09:25:20.896Z,98310.06
2023-05-06T09:26:23.841Z,98306.25
2023-05-06T09:27:29.952Z,98303.22
2023-05-06T09:28:33.586Z,98301.25
2023-05-06T09:29:36.290Z,98305.09
2023-05-06T09:30:44.316Z,98310.09
2023-05-06T09:31:48.570Z,98302.06
2023-05-06T09:32:53.468Z,98303.56
2023-05-06T09:33:58.226Z,98309.31
2023-05-06T09:35:01.818Z,98307.03
2023-05-06T09:36:05.077Z,98302.81
2023-05-06T09:37:07.713Z,98300.53
2023-05-06T09:38:10.784Z,98304.19
2023-05-06T09:39:13.536Z,98309.84
2023-05-06T09:40:16.375Z,98298.16
2023-05-06T09:41:21.372Z,98303.09
2023-05-06T09:42:26.371Z,98301.81
2023-05-06T09:43:29.335Z,98298.41
2023-05-06T09:44:32.888Z,98295.75
2023-05-06T09:45:36.437Z,98304.28
2023-05-06T09:46:39.344Z,98297.03
2023-05-06T09:47:42.566Z,98290.66
2023-05-06T09:48:47.031Z,98288.78
2023-05-06T09:49:49.824Z,98291.59
2023-05-06T09:50:53.615Z,98295.81
2023-05-06T09:51:57.866Z,98288.75
2023-05-06T09:53:01.577Z,98291.63
2023-05-06T09:54:05.073Z,98288.19
2023-05-06T09:55:09.456Z,98281.38
2023-05-06T09:56:14.119Z,98282.44
2023-05-06T09:57:18.513Z,98287.97
2023-05-06T09:58:21.774Z,98279.84
2023-05-06T09:59:25.962Z,98275.25
2023-05-06T10:00:30.159Z,98276.41
2023-05-06T10:01:37.252Z,98279.84
2023-05-06T10:02:41.983Z,98272.94
2023-05-06T10:03:46.461Z,98269.78
2023-05-06T10:04:50.313Z,98270.47
2023-05-06T10:05:54.637Z,98274.50
2023-05-06T10:07:01.032Z,98272.84
2023-05-06T10:08:04.571Z,98282.31
2023-05-06T10:09:08.608Z,98275.62
2023-05-06T10:10:12.326Z,98277.03
2023-05-06T10:11:16.022Z,98273.00
2023-05-06T10:12:20.348Z,98273.63
2023-05-06T10:13:27.109Z,98277.00
2023-05-06T10:14:29.876Z,98272.09
2023-05-06T10:15:33.182Z,98269.31
2023-05-06T10:16:36.835Z,98268.88
2023-05-06T10:17:41.352Z,98269.34
2023-05-06T10:18:45.992Z,98268.50
2023-05-06T10:19:52.659Z,98267.41
2023-05-06T10:20:56.342Z,98271.28
2023-05-06T10:22:22.316Z,98266.97
2023-05-06T10:23:35.627Z,98274.56
2023-05-06T10:24:52.192Z,98264.69
2023-05-06T10:25:57.667Z,98268.03
2023-05-06T10:27:06.014Z,98265.63
2023-05-06T10:28:14.239Z,98274.84
2023-05-06T10:29:26.970Z,98262.63
2023-05-06T10:30:33.422Z,98266.28
2023-05-06T10:31:49.604Z,98258.72
2023-05-06T10:32:54.520Z,98267.59
2023-05-06T10:34:01.279Z,98265.34
2023-05-06T10:35:44.497Z,98257.06
2023-05-06T10:36:51.039Z,98261.88
2023-05-06T10:37:55.274Z,98257.00
2023-05-06T10:39:03.750Z,98255.31
2023-05-06T10:40:10.152Z,98251.22
2023-05-06T10:41:14.309Z,98249.34
2023-05-06T10:42:18.865Z,98249.28
2023-05-06T10:43:31.476Z,98250.88
2023-05-06T10:44:59.840Z,98243.41
2023-05-06T10:46:09.615Z,98241.44
2023-05-06T10:47:12.207Z,98238.56
2023-05-06T10:48:15.000Z,98243.59
2023-05-06T10:49:20.090Z,98236.91
2023-05-06T10:50:25.300Z,98229.84
2023-05-06T10:51:29.297Z,98237.09
2023-05-06T10:52:45.616Z,98233.28
2023-05-06T10:54:07.155Z,98234.41
2023-05-06T10:55:29.982Z,98227.94
2023-05-06T10:56:35.126Z,98236.25
2023-05-06T10:57:41.666Z,98226.34
2023-05-06T10:58:48.166Z,98238.00
2023-05-06T10:59:50.946Z,98229.97
2023-05-06T11:00:55.732Z,98225.44
2023-05-06T11:02:05.032Z,98226.25
2023-05-06T11:03:19.006Z,98224.72
2023-05-06T11:04:25.970Z,98227.34
2023-05-06T11:05:29.045Z,98229.88
2023-05-06T11:06:34.343Z,98226.16
2023-05-06T11:07:37.282Z,98221.69
2023-05-06T11:08:40.106Z,98227.03
2023-05-06T11:10:01.302Z,98227.44
2023-05-06T11:11:42.427Z,98218.91
2023-05-06T11:12:49.630Z,98220.13
2023-05-06T11:13:53.533Z,98225.87
2023-05-06T11:15:43.903Z,98214.41
2023-05-06T11:16:48.750Z,98222.09
2023-05-06T11:17:53.453Z,98222.47
2023-05-06T11:18:56.476Z,98224.38
2023-05-06T11:20:18.886Z,98219.75
2023-05-06T11:21:21.475Z,98226.66
2023-05-06T11:22:40.907Z,98217.09
2023-05-06T11:23:49.690Z,98230.47
2023-05-06T11:24:52.475Z,98228.56
2023-05-06T11:25:58.009Z,98228.47
2023-05-06T11:27:00.868Z,98227.16
2023-05-06T11:28:16.664Z,98224.22
2023-05-06T11:29:19.968Z,98228.09
2023-05-06T11:30:22.660Z,98218.56
2023-05-06T11:31:26.569Z,98226.06
2023-05-06T11:32:30.078Z,98221.47
2023-05-06T11:33:34.243Z,98223.34
2023-05-06T11:34:38.566Z,98215.41
2023-05-06T11:35:41.428Z,98218.00
2023-05-06T11:36:49.685Z,98219.16
2023-05-06T11:37:52.841Z,98224.47
2023-05-06T11:38:59.820Z,98221.94
2023-05-06T11:40:02.512Z,98218.97
2023-05-06T11:41:05.687Z,98225.69
2023-05-06T11:42:09.277Z,98223.72
2023-05-06T11:43:16.557Z,98216.34
2023-05-06T11:44:38.851Z,98222.50
2023-05-06T11:45:45.615Z,98221.25
2023-05-06T11:46:48.489Z,98222.81
2023-05-06T11:47:54.891Z,98226.59
2023-05-06T11:48:57.906Z,98224.91
2023-05-06T11:50:07.956Z,98229.06
2023-05-06T11:51:11.027Z,98231.28
2023-05-06T11:52:13.790Z,98223.03
2023-05-06T11:53:23.823Z,98230.31
2023-05-06T11:54:27.603Z,98225.37
2023-05-06T11:55:30.393Z,98230.19
2023-05-06T11:56:50.387Z,98231.97
2023-05-06T11:57:53.701Z,98234.69
2023-05-06T11:58:57.033Z,98226.31
2023-05-06T11:59:59.801Z,98227.88
2023-05-06T12:01:04.361Z,98229.00
2023-05-06T12:02:13.161Z,98231.44
2023-05-06T12:03:16.226Z,98217.69
2023-05-06T12:04:18.992Z,98229.69
2023-05-06T12:05:24.120Z,98228.41
2023-05-06T12:06:35.353Z,98233.09
2023-05-06T12:07:38.723Z,98228.75
2023-05-06T12:08:41.726Z,98239.06
2023-05-06T12:09:50.513Z,98235.16
2023-05-06T12:10:56.137Z,98240.06
2023-05-06T12:11:59.096Z,98235.00
2023-05-06T12:13:02.685Z,98234.56
2023-05-06T12:14:07.540Z,98229.88
2023-05-06T12:15:11.844Z,98226.59
2023-05-06T12:16:15.941Z,98226.56
2023-05-06T12:17:19.387Z,98240.13
2023-05-06T12:18:23.429Z,98231.13
2023-05-06T12:19:26.762Z,98232.44
2023-05-06T12:20:29.638Z,98226.34
2023-05-06T12:21:33.288Z,98225.97
2023-05-06T12:22:37.159Z,98226.94
2023-05-06T12:23:52.579Z,98221.09
2023-05-06T12:24:55.337Z,98219.75
2023-05-06T12:26:06.356Z,98221.69
2023-05-06T12:27:09.231Z,98218.59
2023-05-06T12:28:19.232Z,98218.84
2023-05-06T12:29:22.407Z,98216.28
2023-05-06T12:30:32.494Z,98221.50
2023-05-06T12:31:35.360Z,98215.56
2023-05-06T12:32:57.370Z,98220.59
2023-05-06T12:34:01.301Z,98214.84
2023-05-06T12:35:07.656Z,98217.22
2023-05-06T12:36:10.905Z,98212.28
2023-05-06T12:37:27.878Z,98210.44
2023-05-06T12:38:32.659Z,98215.97
2023-05-06T12:39:39.437Z,98210.19
2023-05-06T12:40:43.751Z,98214.62